createdAt,value
2023-04-02T00:00:37.282Z,13.60
2023-04-02T00:03:26.132Z,14.10
2023-04-02T00:05:56.304Z,15.10
2023-04-02T00:08:27.657Z,16.70
2023-04-02T00:11:02.193Z,16.40
2023-04-02T00:13:43.826Z,16.80
2023-04-02T00:16:17.187Z,15.90
2023-04-02T00:18:55.857Z,15.10
2023-04-02T00:21:32.501Z,17.00
2023-04-02T00:24:07.224Z,15.20
2023-04-02T00:26:44.653Z,16.30
2023-04-02T00:29:16.285Z,15.30
2023-04-02T00:31:53.102Z,14.90
2023-04-02T00:34:39.899Z,15.10
2023-04-02T00:37:24.114Z,15.80
2023-04-02T00:40:06.395Z,15.40
2023-04-02T00:42:38.511Z,15.90
2023-04-02T00:45:19.986Z,15.70
2023-04-02T00:47:49.009Z,15.20
2023-04-02T00:50:35.489Z,16.00
2023-04-02T00:53:29.396Z,17.50
2023-04-02T00:55:59.510Z,16.90
2023-04-02T00:58:37.200Z,17.60
2023-04-02T01:01:19.461Z,17.40
2023-04-02T01:04:00.529Z,17.00
2023-04-02T01:06:39.348Z,18.00
2023-04-02T01:09:28.380Z,14.70
2023-04-02T01:12:26.540Z,17.50
2023-04-02T01:15:21.569Z,17.60
2023-04-02T01:18:26.875Z,17.40
2023-04-02T01:21:53.075Z,18.20
2023-04-02T01:24:24.845Z,16.30
2023-04-02T01:27:03.544Z,16.80
2023-04-02T01:29:40.507Z,16.90
2023-04-02T01:32:16.861Z,17.40
2023-04-02T01:34:50.903Z,17.60
2023-04-02T01:37:57.729Z,17.50
2023-04-02T01:41:22.834Z,17.30
2023-04-02T01:44:03.263Z,17.90
2023-04-02T01:46:35.342Z,16.90
2023-04-02T01:49:16.300Z,17.10
2023-04-02T01:51:51.965Z,16.70
2023-04-02T01:54:23.278Z,16.90
2023-04-02T01:56:52.279Z,17.20
2023-04-02T01:59:22.818Z,17.40
2023-04-02T02:02:09.500Z,17.10
2023-04-02T02:04:40.839Z,17.80
2023-04-02T02:07:21.254Z,17.60
2023-04-02T02:09:53.702Z,17.40
2023-04-02T02:12:23.197Z,17.30
2023-04-02T02:14:52.718Z,18.40
2023-04-02T02:17:34.683Z,19.50
2023-04-02T02:20:09.429Z,18.30
2023-04-02T02:22:43.783Z,18.80
2023-04-02T02:25:26.463Z,18.80
2023-04-02T02:28:29.841Z,18.10
2023-04-02T02:31:18.726Z,19.10
2023-04-02T02:33:53.442Z,17.40
2023-04-02T02:36:33.756Z,18.10
2023-04-02T02:39:21.722Z,18.90
2023-04-02T02:41:56.395Z,18.60
2023-04-02T02:44:35.353Z,18.80
2023-04-02T02:47:19.195Z,19.50
2023-04-02T02:49:54.393Z,19.20
2023-04-02T02:52:29.335Z,19.00
2023-04-02T02:55:19.060Z,21.20
2023-04-02T02:58:34.506Z,21.10
2023-04-02T03:01:18.966Z,20.20
2023-04-02T03:03:50.358Z,20.70
2023-04-02T03:06:20.981Z,19.10
2023-04-02T03:09:23.038Z,19.20
2023-04-02T03:12:31.806Z,19.50
2023-04-02T03:15:35.725Z,19.10
2023-04-02T03:18:18.223Z,18.40
2023-04-02T03:20:57.083Z,17.40
2023-04-02T03:23:46.180Z,16.90
2023-04-02T03:26:49.136Z,17.60
2023-04-02T03:29:29.775Z,16.70
2023-04-02T03:32:34.708Z,15.40
2023-04-02T03:35:33.296Z,15.30
2023-04-02T03:38:17.004Z,15.70
2023-04-02T03:41:16.618Z,14.50
2023-04-02T03:43:54.975Z,14.20
2023-04-02T03:46:36.184Z,13.40
2023-04-02T03:49:25.777Z,12.60
2023-04-02T03:52:12.302Z,11.80
2023-04-02T03:54:54.109Z,14.00
2023-04-02T03:57:40.850Z,11.90
2023-04-02T04:00:23.573Z,17.00
2023-04-02T04:05:48.466Z,16.30
2023-04-02T04:11:02.140Z,15.40
2023-04-02T04:14:10.000Z,14.80
2023-04-02T04:17:15.975Z,15.40
2023-04-02T04:19:52.054Z,16.00
2023-04-02T04:22:34.121Z,17.10
2023-04-02T04:25:34.043Z,16.00
2023-04-02T04:28:29.624Z,16.80
2023-04-02T04:31:09.322Z,16.00
2023-04-02T04:33:47.376Z,17.20
2023-04-02T04:36:29.400Z,15.70
2023-04-02T04:39:14.751Z,15.20
2023-04-02T04:41:48.420Z,14.00
2023-04-02T04:44:48.617Z,13.80
2023-04-02T04:48:01.716Z,13.90
2023-04-02T04:50:45.811Z,14.00
2023-04-02T04:53:21.325Z,13.70
2023-04-02T04:56:05.934Z,14.00
2023-04-02T04:58:53.486Z,13.50
2023-04-02T05:02:06.551Z,12.90
2023-04-02T05:04:42.561Z,12.50
2023-04-02T05:07:23.741Z,11.90
2023-04-02T05:10:18.663Z,11.30
2023-04-02T05:13:22.205Z,11.10
2023-04-02T05:16:01.857Z,12.20
2023-04-02T05:19:07.103Z,12.10
2023-04-02T05:22:18.567Z,11.90
2023-04-02T05:25:15.996Z,13.00
2023-04-02T05:28:00.665Z,12.40
2023-04-02T05:30:29.400Z,13.00
2023-04-02T05:33:18.039Z,12.30
2023-04-02T05:35:51.614Z,15.00
2023-04-02T05:38:25.878Z,14.40
2023-04-02T05:41:27.282Z,15.00
2023-04-02T05:44:27.120Z,14.30
2023-04-02T05:47:15.201Z,15.10
2023-04-02T05:50:11.322Z,15.20
2023-04-02T05:52:57.587Z,16.40
2023-04-02T05:55:39.050Z,16.90
2023-04-02T05:58:35.326Z,16.40
2023-04-02T06:01:37.570Z,17.90
2023-04-02T06:04:29.084Z,17.70
2023-04-02T06:07:09.077Z,18.80
2023-04-02T06:09:51.246Z,18.50
2023-04-02T06:12:45.600Z,19.30
2023-04-02T06:15:23.737Z,18.20
2023-04-02T06:18:09.073Z,18.00
2023-04-02T06:20:41.554Z,16.60
2023-04-02T06:23:12.411Z,16.70
2023-04-02T06:25:55.765Z,16.60
2023-04-02T06:31:36.927Z,17.20
2023-04-02T06:34:16.397Z,17.10
2023-04-02T06:36:55.083Z,18.80
2023-04-02T06:39:27.950Z,18.70
2023-04-02T06:42:13.485Z,16.40
2023-04-02T06:45:00.974Z,18.10
2023-04-02T06:47:43.985Z,15.70
2023-04-02T06:50:43.427Z,16.50
2023-04-02T06:53:31.121Z,14.10
2023-04-02T06:56:24.307Z,15.50
2023-04-02T06:58:53.974Z,16.10
2023-04-02T07:01:29.460Z,15.70
2023-04-02T07:03:59.982Z,16.20
2023-04-02T07:06:34.070Z,15.90
2023-04-02T07:09:04.866Z,18.30
2023-04-02T07:11:35.618Z,16.80
2023-04-02T07:14:06.795Z,18.00
2023-04-02T07:16:36.942Z,17.10
2023-04-02T07:19:06.028Z,19.60
2023-04-02T07:21:39.266Z,18.00
2023-04-02T07:24:08.496Z,18.00
2023-04-02T07:26:38.269Z,18.40
2023-04-02T07:29:09.560Z,18.70
2023-04-02T07:31:39.458Z,27.10
2023-04-02T07:34:09.891Z,30.00
2023-04-02T07:36:38.725Z,29.00
2023-04-02T07:39:07.398Z,21.30
2023-04-02T07:41:52.499Z,23.50
2023-04-02T07:44:21.257Z,22.90
2023-04-02T07:46:49.987Z,25.50
2023-04-02T07:49:18.868Z,24.50
2023-04-02T07:51:47.734Z,24.10
2023-04-02T07:54:16.583Z,24.80
2023-04-02T07:56:45.434Z,25.30
2023-04-02T07:59:14.208Z,27.20
2023-04-02T08:01:43.343Z,27.20
2023-04-02T08:04:22.910Z,23.70
2023-04-02T08:06:53.069Z,22.80
2023-04-02T08:09:22.186Z,25.50
2023-04-02T08:11:50.974Z,25.40
2023-04-02T08:14:19.654Z,25.40
2023-04-02T08:16:54.174Z,23.70
2023-04-02T08:19:23.160Z,24.70
2023-04-02T08:21:52.093Z,24.00
2023-04-02T08:24:21.870Z,25.60
2023-04-02T08:26:51.742Z,23.20
2023-04-02T08:29:21.881Z,23.90
2023-04-02T08:31:50.734Z,24.10
2023-04-02T08:34:19.457Z,23.60
2023-04-02T08:36:48.193Z,23.50
2023-04-02T08:39:17.094Z,22.40
2023-04-02T08:42:01.453Z,24.30
2023-04-02T08:44:50.710Z,22.20
2023-04-02T08:47:21.782Z,22.60
2023-04-02T08:50:02.996Z,22.80
2023-04-02T08:52:36.957Z,22.60
2023-04-02T08:55:33.041Z,22.30
2023-04-02T08:58:44.407Z,21.00
2023-04-02T09:01:49.614Z,21.30
2023-04-02T09:04:22.861Z,20.00
2023-04-02T09:06:55.529Z,20.90
2023-04-02T09:09:25.677Z,21.00
2023-04-02T09:12:00.934Z,19.70
2023-04-02T09:14:54.951Z,17.90
2023-04-02T09:17:26.535Z,18.70
2023-04-02T09:20:19.737Z,19.50
2023-04-02T09:22:51.509Z,18.60
2023-04-02T09:25:34.492Z,19.20
2023-04-02T09:28:05.314Z,18.30
2023-04-02T09:31:34.645Z,17.30
2023-04-02T09:34:32.958Z,17.30
2023-04-02T09:37:16.450Z,16.60
2023-04-02T09:39:45.774Z,15.70
2023-04-02T09:42:34.319Z,16.10
2023-04-02T09:45:23.564Z,15.30
2023-04-02T09:47:54.419Z,15.10
2023-04-02T09:50:27.637Z,14.70
2023-04-02T09:52:56.483Z,13.50
2023-04-02T09:55:31.306Z,14.50
2023-04-02T09:58:17.515Z,14.80
2023-04-02T10:00:54.412Z,14.70
2023-04-02T10:03:33.068Z,14.00
2023-04-02T10:06:14.612Z,14.90
2023-04-02T10:08:45.757Z,14.60
2023-04-02T10:11:24.323Z,13.10
2023-04-02T10:14:09.988Z,15.10
2023-04-02T10:16:52.259Z,15.70
2023-04-02T10:19:44.380Z,13.70
2023-04-02T10:22:19.637Z,13.20
2023-04-02T10:24:49.787Z,12.70
2023-04-02T10:27:29.976Z,13.30
2023-04-02T10:30:50.735Z,12.80
2023-04-02T10:33:30.333Z,13.30
2023-04-02T10:36:21.523Z,12.70
2023-04-02T10:39:14.149Z,12.10
2023-04-02T10:42:20.072Z,11.40
2023-04-02T10:45:06.901Z,10.50
2023-04-02T10:47:59.626Z,11.30
2023-04-02T10:50:41.625Z,31.40
2023-04-02T10:53:23.483Z,13.90
2023-04-02T10:56:03.643Z,11.30
2023-04-02T10:58:38.899Z,11.00
2023-04-02T11:01:17.183Z,10.20
2023-04-02T11:03:58.116Z,10.70
2023-04-02T11:06:33.087Z,10.20
2023-04-02T11:09:06.663Z,10.20
2023-04-02T11:11:42.188Z,10.60
2023-04-02T11:14:25.225Z,10.10
2023-04-02T11:16:58.992Z,9.80
2023-04-02T11:19:34.969Z,9.50
2023-04-02T11:22:25.823Z,11.40
2023-04-02T11:24:57.392Z,12.90
2023-04-02T11:27:34.180Z,12.70
2023-04-02T11:30:18.284Z,14.10
2023-04-02T11:32:52.188Z,11.90
2023-04-02T11:35:33.341Z,11.80
2023-04-02T11:38:22.867Z,11.10
2023-04-02T11:41:02.237Z,12.30
2023-04-02T11:43:33.976Z,11.70
2023-04-02T11:46:06.864Z,12.40
2023-04-02T11:51:21.450Z,12.20
2023-04-02T11:53:53.971Z,11.50
2023-04-02T11:56:52.832Z,11.30
2023-04-02T11:59:47.228Z,10.90
2023-04-02T12:02:34.057Z,12.50
2023-04-02T12:05:17.950Z,12.50
2023-04-02T12:08:57.940Z,12.40
2023-04-02T12:11:36.815Z,11.80
2023-04-02T12:14:43.130Z,12.00
2023-04-02T12:17:44.003Z,10.90
2023-04-02T12:20:21.650Z,11.10
2023-04-02T12:22:54.307Z,10.30
2023-04-02T12:25:40.507Z,11.00
2023-04-02T12:28:20.804Z,10.20
2023-04-02T12:30:52.166Z,11.00
2023-04-02T12:33:21.096Z,10.70
2023-04-02T12:35:55.634Z,11.30
2023-04-02T12:38:29.054Z,11.70
2023-04-02T12:41:01.442Z,11.30
2023-04-02T12:43:36.975Z,11.20
2023-04-02T12:46:08.505Z,10.30
2023-04-02T12:48:39.445Z,9.90
2023-04-02T12:51:08.353Z,10.00
2023-04-02T12:53:40.465Z,9.90
2023-04-02T12:56:19.139Z,9.80
2023-04-02T12:59:00.601Z,10.20
2023-04-02T13:01:32.093Z,9.60
2023-04-02T13:04:15.410Z,10.80
2023-04-02T13:09:36.302Z,9.60
2023-04-02T13:12:05.814Z,8.50
2023-04-02T13:14:34.720Z,9.50
2023-04-02T13:17:03.499Z,9.50
2023-04-02T13:19:34.276Z,9.50
2023-04-02T13:22:04.643Z,9.00
2023-04-02T13:24:33.623Z,9.40
2023-04-02T13:27:04.117Z,9.00
2023-04-02T13:29:36.509Z,9.30
2023-04-02T13:32:12.322Z,8.70
2023-04-02T13:34:41.008Z,8.40
2023-04-02T13:37:13.364Z,8.70
2023-04-02T13:39:42.212Z,8.80
2023-04-02T13:42:11.907Z,8.50
2023-04-02T13:44:41.931Z,9.50
2023-04-02T13:47:15.109Z,9.90
2023-04-02T13:49:43.906Z,10.40
2023-04-02T13:52:16.716Z,8.80
2023-04-02T13:55:00.820Z,9.40
2023-04-02T13:57:29.642Z,9.80
2023-04-02T13:59:58.547Z,9.10
2023-04-02T14:02:27.673Z,9.10
2023-04-02T14:05:13.716Z,9.40
2023-04-02T14:08:09.260Z,9.70
2023-04-02T14:11:07.371Z,10.20
2023-04-02T14:13:51.337Z,10.10
2023-04-02T14:16:42.660Z,10.40
2023-04-02T14:19:21.190Z,11.40
2023-04-02T14:22:30.553Z,11.90
2023-04-02T14:25:07.832Z,11.20
2023-04-02T14:28:01.371Z,11.10
2023-04-02T14:34:17.463Z,12.40
2023-04-02T14:37:23.660Z,12.10
2023-04-02T14:40:14.664Z,11.40
2023-04-02T14:42:46.210Z,12.30
2023-04-02T14:45:31.149Z,12.80
2023-04-02T14:48:09.024Z,12.80
2023-04-02T14:50:42.851Z,12.80
2023-04-02T14:53:31.147Z,13.00
2023-04-02T14:56:02.504Z,13.60
2023-04-02T14:58:40.207Z,12.80
2023-04-02T15:01:20.712Z,13.30
2023-04-02T15:04:15.761Z,13.20
2023-04-02T15:09:31.559Z,15.50
2023-04-02T15:12:09.252Z,13.20
2023-04-02T15:14:45.909Z,12.30
2023-04-02T15:17:14.777Z,13.80
2023-04-02T15:19:43.521Z,13.50
2023-04-02T15:22:37.682Z,13.70
2023-04-02T15:25:38.079Z,13.60
2023-04-02T15:28:17.835Z,13.30
2023-04-02T15:30:52.626Z,12.60
2023-04-02T15:33:36.059Z,12.60
2023-04-02T15:36:35.543Z,15.40
2023-04-02T15:39:28.306Z,11.80
2023-04-02T15:42:08.906Z,10.80
2023-04-02T15:44:54.110Z,11.00
2023-04-02T15:47:57.756Z,10.20
2023-04-02T15:53:44.890Z,8.40
2023-04-02T15:57:07.578Z,9.30
2023-04-02T16:00:06.791Z,8.90
2023-04-02T16:02:58.741Z,9.30
2023-04-02T16:05:50.230Z,8.30
2023-04-02T16:08:44.194Z,8.60
2023-04-02T16:11:15.439Z,11.30
2023-04-02T16:13:44.282Z,8.50
2023-04-02T16:16:19.131Z,8.40
2023-04-02T16:19:05.970Z,9.60
2023-04-02T16:22:12.069Z,9.70
2023-04-02T16:24:40.865Z,8.70
2023-04-02T16:27:23.785Z,9.40
2023-04-02T16:30:01.145Z,8.40
2023-04-02T16:32:43.265Z,8.30
2023-04-02T16:38:12.088Z,12.80
2023-04-02T16:41:08.665Z,8.40
2023-04-02T16:43:56.090Z,9.20
2023-04-02T16:46:54.380Z,8.60
2023-04-02T16:49:48.060Z,8.40
2023-04-02T16:52:33.720Z,9.50
2023-04-02T16:55:14.633Z,8.30
2023-04-02T16:58:00.819Z,9.00
2023-04-02T17:00:53.165Z,8.10
2023-04-02T17:04:08.997Z,10.80
2023-04-02T17:06:44.961Z,9.70
2023-04-02T17:09:35.718Z,9.80
2023-04-02T17:12:41.493Z,12.40
2023-04-02T17:15:32.089Z,12.30
2023-04-02T17:18:02.229Z,10.90
2023-04-02T17:20:31.344Z,11.60
2023-04-02T17:23:02.764Z,11.30
2023-04-02T17:25:40.109Z,9.70
2023-04-02T17:28:15.344Z,9.50
2023-04-02T17:30:49.699Z,8.60
2023-04-02T17:33:19.536Z,10.10
2023-04-02T17:36:01.259Z,9.30
2023-04-02T17:39:03.261Z,9.70
2023-04-02T17:41:53.629Z,10.30
2023-04-02T17:44:43.511Z,9.70
2023-04-02T17:47:54.178Z,9.90
2023-04-02T17:50:44.171Z,9.00
2023-04-02T17:53:54.532Z,9.40
2023-04-02T17:56:38.388Z,8.70
2023-04-02T17:59:29.080Z,10.00
2023-04-02T18:02:10.677Z,9.70
2023-04-02T18:04:53.940Z,11.80
2023-04-02T18:10:31.649Z,10.60
2023-04-02T18:13:24.166Z,11.30
2023-04-02T18:16:28.051Z,11.20
2023-04-02T18:19:23.089Z,11.80
2023-04-02T18:22:15.650Z,12.10
2023-04-02T18:25:04.692Z,12.50
2023-04-02T18:28:15.993Z,13.80
2023-04-02T18:31:17.205Z,13.00
2023-04-02T18:33:57.666Z,13.60
2023-04-02T18:36:52.107Z,12.20
2023-04-02T18:39:30.927Z,11.00
2023-04-02T18:42:14.286Z,11.40
2023-04-02T18:47:57.487Z,8.80
2023-04-02T18:50:39.343Z,9.30
2023-04-02T18:53:14.595Z,12.50
2023-04-02T18:55:50.797Z,12.80
2023-04-02T18:58:49.981Z,12.30
2023-04-02T19:01:36.547Z,13.00
2023-04-02T19:04:15.062Z,12.30
2023-04-02T19:06:48.693Z,11.20
2023-04-02T19:09:31.290Z,10.40
2023-04-02T19:12:00.352Z,11.20
2023-04-02T19:14:30.172Z,11.50
2023-04-02T19:17:22.878Z,10.10
2023-04-02T19:20:13.003Z,9.80
2023-04-02T19:22:50.844Z,8.40
2023-04-02T19:25:30.347Z,6.20
2023-04-02T19:28:27.856Z,7.40
2023-04-02T19:31:11.915Z,5.80
2023-04-02T19:33:43.049Z,7.00
2023-04-02T19:36:36.727Z,6.40
2023-04-02T19:39:17.253Z,7.00
2023-04-02T19:42:02.620Z,7.80
2023-04-02T19:44:31.286Z,8.60
2023-04-02T19:47:00.127Z,8.30
2023-04-02T19:49:34.778Z,9.00
2023-04-02T19:52:03.785Z,9.50
2023-04-02T19:54:32.471Z,7.90
2023-04-02T19:57:03.195Z,8.10
2023-04-02T19:59:33.615Z,9.20
2023-04-02T20:02:06.131Z,7.80
2023-04-02T20:04:34.857Z,6.20
2023-04-02T20:07:03.609Z,8.50
2023-04-02T20:09:32.341Z,7.50
2023-04-02T20:12:01.231Z,7.10
2023-04-02T20:14:30.005Z,6.80
2023-04-02T20:16:58.820Z,7.90
2023-04-02T20:19:27.569Z,8.10
2023-04-02T20:21:56.626Z,8.50
2023-04-02T20:24:25.570Z,8.80
2023-04-02T20:26:54.342Z,7.30
2023-04-02T20:29:24.728Z,8.40
2023-04-02T20:31:53.421Z,8.70
2023-04-02T20:34:22.401Z,7.50
2023-04-02T20:36:51.240Z,7.60
2023-04-02T20:39:20.596Z,8.00
2023-04-02T20:41:49.442Z,9.30
2023-04-02T20:44:18.148Z,8.60
2023-04-02T20:46:47.014Z,7.20
2023-04-02T20:49:15.702Z,8.60
2023-04-02T20:51:44.612Z,7.50
2023-04-02T20:54:13.299Z,6.40
2023-04-02T20:56:43.261Z,8.00
2023-04-02T20:59:12.246Z,7.40
2023-04-02T21:01:40.996Z,7.30
2023-04-02T21:04:09.816Z,6.30
2023-04-02T21:06:39.658Z,7.40
2023-04-02T21:09:15.289Z,8.50
2023-04-02T21:11:44.803Z,8.30
2023-04-02T21:14:13.560Z,8.20
2023-04-02T21:16:42.333Z,7.40
2023-04-02T21:19:11.334Z,8.20
2023-04-02T21:21:40.815Z,7.40
2023-04-02T21:24:10.184Z,7.60
2023-04-02T21:26:41.671Z,7.60
2023-04-02T21:29:12.162Z,8.00
2023-04-02T21:31:42.202Z,7.20
2023-04-02T21:34:16.029Z,4.90
2023-04-02T21:36:47.459Z,6.80
2023-04-02T21:39:24.249Z,6.50
2023-04-02T21:41:53.794Z,6.10
2023-04-02T21:44:24.227Z,6.50
2023-04-02T21:46:54.148Z,6.50
2023-04-02T21:49:23.706Z,5.20
2023-04-02T21:51:52.714Z,5.50
2023-04-02T21:54:21.576Z,5.10
2023-04-02T21:56:50.560Z,6.00
2023-04-02T21:59:19.525Z,4.80
2023-04-02T22:01:51.251Z,5.00
2023-04-02T22:04:26.147Z,6.80
2023-04-02T22:06:55.017Z,5.20
2023-04-02T22:09:26.790Z,4.30
2023-04-02T22:12:01.954Z,5.10
2023-04-02T22:14:30.916Z,5.60
2023-04-02T22:16:59.856Z,4.60
2023-04-02T22:19:28.631Z,5.40
2023-04-02T22:21:57.407Z,4.30
2023-04-02T22:24:26.180Z,4.50
2023-04-02T22:26:54.892Z,4.60
2023-04-02T22:29:23.720Z,4.40
2023-04-02T22:31:52.419Z,4.70
2023-04-02T22:34:21.429Z,5.70
2023-04-02T22:36:50.184Z,5.10
2023-04-02T22:39:18.911Z,4.70
2023-04-02T22:41:47.642Z,5.00
2023-04-02T22:44:16.549Z,4.90
2023-04-02T22:46:45.216Z,4.40
2023-04-02T22:49:19.507Z,4.90
2023-04-02T22:51:48.523Z,4.50
2023-04-02T22:54:17.358Z,5.40
2023-04-02T22:56:46.210Z,5.60
2023-04-02T22:59:15.062Z,4.50
2023-04-02T23:01:43.953Z,4.70
2023-04-02T23:04:12.924Z,5.70
2023-04-02T23:06:41.626Z,5.50
2023-04-02T23:09:10.533Z,5.20
2023-04-02T23:11:39.307Z,5.30
2023-04-02T23:14:08.054Z,6.10
2023-04-02T23:16:36.727Z,5.20
2023-04-02T23:19:05.437Z,5.20
2023-04-02T23:21:34.196Z,5.80
2023-04-02T23:24:02.937Z,5.60
2023-04-02T23:26:31.813Z,5.20
2023-04-02T23:29:02.043Z,4.90
2023-04-02T23:31:30.907Z,5.70
2023-04-02T23:33:59.680Z,4.80
2023-04-02T23:36:34.843Z,4.50
2023-04-02T23:39:10.996Z,5.00
2023-04-02T23:41:42.505Z,4.30
2023-04-02T23:44:11.365Z,4.90
2023-04-02T23:46:40.131Z,5.50
2023-04-02T23:49:12.695Z,4.50
2023-04-02T23:51:41.639Z,4.50
2023-04-02T23:54:12.140Z,4.50
2023-04-02T23:56:41.856Z,5.50
2023-04-02T23:59:10.556Z,4.40
